Terminal Aerodrome Forecast
Issued by NWS Blacksburg, VA

Home | Current Version | Previous Version | Text Only | Print | Product List | Glossary On
Versions: 1 2 3 4 5 6 7 8 9 10 11 12 13 14 15 16
000
FTUS41 KRNK 231135
TAFROA
TAF
KROA 231135Z 2312/2412 04006KT P6SM BKN020 OVC030
     FM231400 07007KT P6SM OVC015
      TEMPO 2314/2315 4SM -SHRA BR OVC025
     FM231600 08006KT 3SM RA BR OVC015
     FM232000 07006KT 3SM RA BR OVC008
     FM240100 06006KT 4SM RA BR OVC012=

USA.gov is the U.S. government's official web portal to all federal, state and local government web resources and services.